createdAt,value
2023-05-13T00:00:39.354Z,17.10
2023-05-13T00:15:42.203Z,17.00
2023-05-13T00:30:45.756Z,16.80
2023-05-13T00:45:48.619Z,16.60
2023-05-13T01:01:09.007Z,16.30
2023-05-13T01:16:45.001Z,16.50
2023-05-13T01:31:48.711Z,16.30
2023-05-13T01:46:53.062Z,16.10
2023-05-13T02:01:56.087Z,16.10
2023-05-13T02:17:03.565Z,16.00
2023-05-13T02:32:06.622Z,15.90
2023-05-13T02:47:09.456Z,15.70
2023-05-13T03:02:12.307Z,15.70
2023-05-13T03:17:14.769Z,15.80
2023-05-13T03:32:17.304Z,15.50
2023-05-13T03:47:20.525Z,15.50
2023-05-13T04:02:24.091Z,15.30
2023-05-13T04:17:27.112Z,14.90
2023-05-13T04:32:29.740Z,14.80
2023-05-13T04:47:35.117Z,16.00
2023-05-13T05:02:37.672Z,15.90
2023-05-13T05:17:40.197Z,17.30
2023-05-13T05:32:42.791Z,18.10
2023-05-13T05:47:45.698Z,18.60
2023-05-13T06:02:51.658Z,18.70
2023-05-13T06:17:55.993Z,17.00
2023-05-13T06:33:02.169Z,17.20
2023-05-13T06:48:06.275Z,17.90
2023-05-13T07:03:09.168Z,17.90
2023-05-13T07:18:11.658Z,16.60
2023-05-13T07:33:14.232Z,16.10
2023-05-13T07:48:17.839Z,16.90
2023-05-13T08:03:20.359Z,17.00
2023-05-13T08:18:22.859Z,17.30
2023-05-13T08:33:25.666Z,17.00
2023-05-13T08:48:28.222Z,18.50
2023-05-13T09:03:31.454Z,18.50
2023-05-13T09:18:34.215Z,19.00
2023-05-13T09:33:37.044Z,18.80
2023-05-13T09:48:43.066Z,19.00
2023-05-13T10:03:46.382Z,19.50
2023-05-13T10:18:48.986Z,19.00
2023-05-13T10:33:53.326Z,19.20
2023-05-13T10:48:58.855Z,19.60
2023-05-13T11:04:03.298Z,20.30
2023-05-13T11:19:20.694Z,20.80
2023-05-13T11:34:23.624Z,21.60
2023-05-13T11:49:45.526Z,22.10
2023-05-13T12:04:47.994Z,22.00
2023-05-13T12:20:11.686Z,22.50
2023-05-13T12:35:14.517Z,22.40
2023-05-13T12:50:17.064Z,22.20
2023-05-13T13:05:23.108Z,20.80
2023-05-13T13:20:26.168Z,19.50
2023-05-13T13:35:28.585Z,20.70
2023-05-13T13:50:31.046Z,20.70
2023-05-13T14:05:33.515Z,20.80
2023-05-13T14:20:36.317Z,22.10
2023-05-13T14:35:38.769Z,21.60
2023-05-13T14:50:42.037Z,21.20
2023-05-13T15:05:45.663Z,21.10
2023-05-13T15:20:48.211Z,21.60
2023-05-13T15:35:52.476Z,21.30
2023-05-13T15:50:54.952Z,21.40
2023-05-13T16:05:57.451Z,21.40
2023-05-13T16:20:59.791Z,20.80
2023-05-13T16:36:02.154Z,20.50
2023-05-13T16:51:04.570Z,20.30
2023-05-13T17:06:07.539Z,19.90
2023-05-13T17:21:10.017Z,16.50
2023-05-13T17:36:12.421Z,15.90
2023-05-13T17:51:14.860Z,17.30
2023-05-13T18:06:17.502Z,17.30
2023-05-13T18:21:19.924Z,17.50
2023-05-13T18:36:22.272Z,17.70
2023-05-13T18:51:24.784Z,18.20
2023-05-13T19:06:27.293Z,18.20
2023-05-13T19:21:29.836Z,18.20
2023-05-13T19:36:32.661Z,18.00
2023-05-13T19:51:35.252Z,18.10
2023-05-13T20:06:37.649Z,18.40
2023-05-13T20:21:40.252Z,18.40
2023-05-13T20:36:42.876Z,18.40
2023-05-13T20:51:47.955Z,18.20
2023-05-13T21:06:50.428Z,18.10
2023-05-13T21:21:52.865Z,18.10
2023-05-13T21:36:55.311Z,17.70
2023-05-13T21:51:57.703Z,17.70
2023-05-13T22:07:02.237Z,17.70
2023-05-13T22:22:04.757Z,17.40
2023-05-13T22:37:07.188Z,17.00
2023-05-13T22:52:09.712Z,16.90
2023-05-13T23:07:12.131Z,17.00
2023-05-13T23:22:14.465Z,16.70
2023-05-13T23:37:17.852Z,16.80
2023-05-13T23:52:20.191Z,16.70
